sensor_id;sensor_type;location;lat;lon;timestamp;pressure;altitude;pressure_sealevel;temperature;humidity
56270;BME280;42176;43.240;27.880;2023-03-12T00:01:20;98821.09;;;7.28;53.27
56270;BME280;42176;43.240;27.880;2023-03-12T00:03:46;98826.13;;;7.06;52.97
56270;BME280;42176;43.240;27.880;2023-03-12T00:06:17;98824.19;;;7.12;52.92
56270;BME280;42176;43.240;27.880;2023-03-12T00:08:43;98833.16;;;7.05;52.69
56270;BME280;42176;43.240;27.880;2023-03-12T00:11:11;98840.22;;;7.03;52.45
56270;BME280;42176;43.240;27.880;2023-03-12T00:13:37;98850.97;;;6.97;52.42
56270;BME280;42176;43.240;27.880;2023-03-12T00:16:11;98852.84;;;6.92;53.15
56270;BME280;42176;43.240;27.880;2023-03-12T00:18:37;98845.69;;;6.97;52.58
56270;BME280;42176;43.240;27.880;2023-03-12T00:21:03;98850.16;;;6.93;52.27
56270;BME280;42176;43.240;27.880;2023-03-12T00:23:29;98850.13;;;6.95;52.60
56270;BME280;42176;43.240;27.880;2023-03-12T00:26:02;98852.78;;;6.95;52.52
56270;BME280;42176;43.240;27.880;2023-03-12T00:28:28;98865.13;;;6.93;52.59
56270;BME280;42176;43.240;27.880;2023-03-12T00:30:54;98858.19;;;6.89;52.68
56270;BME280;42176;43.240;27.880;2023-03-12T00:33:20;98878.41;;;6.88;52.97
56270;BME280;42176;43.240;27.880;2023-03-12T00:35:45;98888.06;;;6.88;52.66
56270;BME280;42176;43.240;27.880;2023-03-12T00:38:10;98881.06;;;6.86;52.69
56270;BME280;42176;43.240;27.880;2023-03-12T00:40:36;98893.44;;;6.84;52.36
56270;BME280;42176;43.240;27.880;2023-03-12T00:43:03;98889.38;;;6.73;52.81
56270;BME280;42176;43.240;27.880;2023-03-12T00:45:29;98901.75;;;6.69;53.42
56270;BME280;42176;43.240;27.880;2023-03-12T00:47:54;98903.97;;;6.50;53.34
56270;BME280;42176;43.240;27.880;2023-03-12T00:50:19;98919.56;;;6.59;53.50
56270;BME280;42176;43.240;27.880;2023-03-12T00:52:45;98908.16;;;6.59;53.65
56270;BME280;42176;43.240;27.880;2023-03-12T00:55:10;98914.44;;;6.53;53.64
56270;BME280;42176;43.240;27.880;2023-03-12T00:57:36;98920.59;;;6.53;54.12
56270;BME280;42176;43.240;27.880;2023-03-12T01:02:36;98911.16;;;6.45;54.06
56270;BME280;42176;43.240;27.880;2023-03-12T01:05:03;98910.50;;;6.35;53.98
56270;BME280;42176;43.240;27.880;2023-03-12T01:07:28;98904.59;;;6.23;54.58
56270;BME280;42176;43.240;27.880;2023-03-12T01:09:54;98911.53;;;6.28;54.63
56270;BME280;42176;43.240;27.880;2023-03-12T01:12:19;98912.78;;;6.11;54.45
56270;BME280;42176;43.240;27.880;2023-03-12T01:14:45;98910.97;;;6.15;54.90
56270;BME280;42176;43.240;27.880;2023-03-12T01:17:10;98920.91;;;6.02;54.78
56270;BME280;42176;43.240;27.880;2023-03-12T01:19:35;98933.84;;;6.11;54.95
56270;BME280;42176;43.240;27.880;2023-03-12T01:22:01;98909.56;;;6.00;55.06
56270;BME280;42176;43.240;27.880;2023-03-12T01:24:26;98923.25;;;6.14;55.00
56270;BME280;42176;43.240;27.880;2023-03-12T01:26:52;98923.25;;;6.14;54.43
56270;BME280;42176;43.240;27.880;2023-03-12T01:29:17;98920.03;;;6.03;54.70
56270;BME280;42176;43.240;27.880;2023-03-12T01:31:43;98901.75;;;5.95;54.82
56270;BME280;42176;43.240;27.880;2023-03-12T01:34:10;98917.47;;;5.97;55.36
56270;BME280;42176;43.240;27.880;2023-03-12T01:36:36;98906.88;;;6.01;55.21
56270;BME280;42176;43.240;27.880;2023-03-12T01:39:03;98890.63;;;5.82;55.16
56270;BME280;42176;43.240;27.880;2023-03-12T01:41:30;98892.25;;;5.89;55.75
56270;BME280;42176;43.240;27.880;2023-03-12T01:44:00;98904.34;;;5.97;55.80
56270;BME280;42176;43.240;27.880;2023-03-12T01:46:38;98901.09;;;5.85;55.63
56270;BME280;42176;43.240;27.880;2023-03-12T01:54:25;98882.72;;;5.84;56.07
56270;BME280;42176;43.240;27.880;2023-03-12T01:56:55;98886.16;;;5.86;56.19
56270;BME280;42176;43.240;27.880;2023-03-12T01:59:30;98884.44;;;5.85;56.31
56270;BME280;42176;43.240;27.880;2023-03-12T02:01:57;98900.38;;;5.77;56.48
56270;BME280;42176;43.240;27.880;2023-03-12T02:04:25;98899.63;;;5.72;56.96
56270;BME280;42176;43.240;27.880;2023-03-12T02:07:17;98917.00;;;5.79;57.06
56270;BME280;42176;43.240;27.880;2023-03-12T02:09:46;98921.47;;;5.75;57.09
56270;BME280;42176;43.240;27.880;2023-03-12T02:12:14;98932.91;;;5.73;56.96
56270;BME280;42176;43.240;27.880;2023-03-12T02:14:40;98936.63;;;5.64;57.42
56270;BME280;42176;43.240;27.880;2023-03-12T02:17:06;98939.91;;;5.74;57.13
56270;BME280;42176;43.240;27.880;2023-03-12T02:22:20;98976.31;;;5.92;56.62
56270;BME280;42176;43.240;27.880;2023-03-12T02:24:53;98988.78;;;5.84;56.76
56270;BME280;42176;43.240;27.880;2023-03-12T02:27:22;98994.94;;;5.83;56.87
56270;BME280;42176;43.240;27.880;2023-03-12T02:29:47;98987.09;;;5.80;56.77
56270;BME280;42176;43.240;27.880;2023-03-12T02:32:23;99007.97;;;5.89;56.50
56270;BME280;42176;43.240;27.880;2023-03-12T02:34:50;99032.34;;;5.98;56.26
56270;BME280;42176;43.240;27.880;2023-03-12T02:37:17;99014.56;;;6.09;56.08
56270;BME280;42176;43.240;27.880;2023-03-12T02:39:49;99020.78;;;6.06;55.88
56270;BME280;42176;43.240;27.880;2023-03-12T02:42:16;99007.06;;;5.90;57.03
56270;BME280;42176;43.240;27.880;2023-03-12T02:44:42;99022.81;;;5.92;57.20
56270;BME280;42176;43.240;27.880;2023-03-12T02:47:08;99020.41;;;5.81;57.50
56270;BME280;42176;43.240;27.880;2023-03-12T02:49:34;99015.34;;;5.72;57.90
56270;BME280;42176;43.240;27.880;2023-03-12T02:52:01;99024.22;;;5.64;58.49
56270;BME280;42176;43.240;27.880;2023-03-12T02:54:27;99014.66;;;5.62;58.07
56270;BME280;42176;43.240;27.880;2023-03-12T02:56:52;99021.81;;;5.54;58.95
56270;BME280;42176;43.240;27.880;2023-03-12T02:59:19;99029.09;;;5.39;59.74
56270;BME280;42176;43.240;27.880;2023-03-12T03:01:46;99024.94;;;5.27;60.07
56270;BME280;42176;43.240;27.880;2023-03-12T03:04:15;99028.56;;;5.20;60.45
56270;BME280;42176;43.240;27.880;2023-03-12T03:06:42;99033.78;;;5.23;60.81
56270;BME280;42176;43.240;27.880;2023-03-12T03:09:08;99042.72;;;5.11;61.80
56270;BME280;42176;43.240;27.880;2023-03-12T03:11:33;99035.69;;;5.13;61.55
56270;BME280;42176;43.240;27.880;2023-03-12T03:13:59;99033.91;;;5.14;61.98
56270;BME280;42176;43.240;27.880;2023-03-12T03:16:24;99038.44;;;5.06;62.53
56270;BME280;42176;43.240;27.880;2023-03-12T03:18:50;99025.56;;;4.90;63.05
56270;BME280;42176;43.240;27.880;2023-03-12T03:21:16;99021.16;;;4.91;63.13
56270;BME280;42176;43.240;27.880;2023-03-12T03:23:44;98999.31;;;4.90;63.66
56270;BME280;42176;43.240;27.880;2023-03-12T03:26:09;99014.91;;;4.99;63.51
56270;BME280;42176;43.240;27.880;2023-03-12T03:28:35;98995.97;;;4.82;64.03
56270;BME280;42176;43.240;27.880;2023-03-12T03:31:01;98994.19;;;4.82;64.01
56270;BME280;42176;43.240;27.880;2023-03-12T03:33:31;99006.56;;;4.76;64.20
56270;BME280;42176;43.240;27.880;2023-03-12T03:35:57;99020.41;;;4.84;64.68
56270;BME280;42176;43.240;27.880;2023-03-12T03:38:24;99038.09;;;4.72;64.45
56270;BME280;42176;43.240;27.880;2023-03-12T03:40:51;99050.50;;;4.64;64.70
56270;BME280;42176;43.240;27.880;2023-03-12T03:43:17;99051.50;;;4.55;65.34
56270;BME280;42176;43.240;27.880;2023-03-12T03:45:42;99073.13;;;4.71;64.87
56270;BME280;42176;43.240;27.880;2023-03-12T03:48:10;99064.41;;;4.69;64.84
56270;BME280;42176;43.240;27.880;2023-03-12T03:50:37;99076.63;;;4.70;65.18
56270;BME280;42176;43.240;27.880;2023-03-12T03:53:05;99078.28;;;4.78;64.85
56270;BME280;42176;43.240;27.880;2023-03-12T03:55:35;99099.38;;;4.71;64.91
56270;BME280;42176;43.240;27.880;2023-03-12T03:58:01;99109.81;;;4.78;64.37
56270;BME280;42176;43.240;27.880;2023-03-12T04:00:26;99122.03;;;4.77;64.39
56270;BME280;42176;43.240;27.880;2023-03-12T04:02:52;99138.69;;;4.78;64.44
56270;BME280;42176;43.240;27.880;2023-03-12T04:05:17;99132.63;;;4.72;64.48
56270;BME280;42176;43.240;27.880;2023-03-12T04:07:43;99151.09;;;4.66;64.52
56270;BME280;42176;43.240;27.880;2023-03-12T04:10:09;99145.13;;;4.53;64.99
56270;BME280;42176;43.240;27.880;2023-03-12T04:12:35;99153.09;;;4.49;65.59
56270;BME280;42176;43.240;27.880;2023-03-12T04:15:01;99171.34;;;4.55;65.09
56270;BME280;42176;43.240;27.880;2023-03-12T04:17:26;99194.03;;;4.62;65.25
56270;BME280;42176;43.240;27.880;2023-03-12T04:19:52;99192.09;;;4.77;64.90
56270;BME280;42176;43.240;27.880;2023-03-12T04:22:17;99205.94;;;4.88;64.27
56270;BME280;42176;43.240;27.880;2023-03-12T04:24:43;99212.06;;;4.87;63.87
56270;BME280;42176;43.240;27.880;2023-03-12T04:27:08;99212.94;;;4.86;64.37
56270;BME280;42176;43.240;27.880;2023-03-12T04:29:33;99230.47;;;4.85;64.09
56270;BME280;42176;43.240;27.880;2023-03-12T04:31:59;99238.31;;;4.88;64.24
56270;BME280;42176;43.240;27.880;2023-03-12T04:34:24;99251.47;;;4.87;63.90
56270;BME280;42176;43.240;27.880;2023-03-12T04:36:50;99259.28;;;4.92;63.81
56270;BME280;42176;43.240;27.880;2023-03-12T04:39:17;99270.53;;;5.01;62.98
56270;BME280;42176;43.240;27.880;2023-03-12T04:41:43;99280.88;;;5.14;63.00
56270;BME280;42176;43.240;27.880;2023-03-12T04:44:08;99252.91;;;5.10;62.29
56270;BME280;42176;43.240;27.880;2023-03-12T04:46:34;99258.88;;;5.21;62.82
56270;BME280;42176;43.240;27.880;2023-03-12T04:48:59;99206.03;;;4.82;63.10
56270;BME280;42176;43.240;27.880;2023-03-12T04:51:27;99259.06;;;5.07;63.11
56270;BME280;42176;43.240;27.880;2023-03-12T04:53:53;99248.53;;;5.12;63.65
56270;BME280;42176;43.240;27.880;2023-03-12T04:56:19;99259.06;;;5.07;63.62
56270;BME280;42176;43.240;27.880;2023-03-12T04:58:44;99267.91;;;5.03;63.98
56270;BME280;42176;43.240;27.880;2023-03-12T05:01:23;99271.22;;;5.16;63.02
56270;BME280;42176;43.240;27.880;2023-03-12T05:03:49;99263.41;;;5.69;60.23
56270;BME280;42176;43.240;27.880;2023-03-12T05:06:15;99273.88;;;6.27;58.51
56270;BME280;42176;43.240;27.880;2023-03-12T05:08:41;99272.13;;;7.15;55.92
56270;BME280;42176;43.240;27.880;2023-03-12T05:11:06;99268.53;;;7.59;53.39
56270;BME280;42176;43.240;27.880;2023-03-12T05:13:32;99274.69;;;8.29;51.43
56270;BME280;42176;43.240;27.880;2023-03-12T05:15:57;99285.53;;;9.16;49.27
56270;BME280;42176;43.240;27.880;2023-03-12T05:18:23;99291.78;;;9.70;47.52
56270;BME280;42176;43.240;27.880;2023-03-12T05:21:01;99293.50;;;10.26;45.70
56270;BME280;42176;43.240;27.880;2023-03-12T05:23:27;99299.56;;;10.80;44.89
56270;BME280;42176;43.240;27.880;2023-03-12T05:25:53;99298.97;;;11.67;43.02
56270;BME280;42176;43.240;27.880;2023-03-12T05:28:18;99288.13;;;12.16;41.42
56270;BME280;42176;43.240;27.880;2023-03-12T05:30:44;99284.09;;;12.49;40.25
56270;BME280;42176;43.240;27.880;2023-03-12T05:33:10;99295.00;;;12.22;40.68
56270;BME280;42176;43.240;27.880;2023-03-12T05:35:36;99319.41;;;11.41;41.59
56270;BME280;42176;43.240;27.880;2023-03-12T05:38:01;99327.09;;;10.51;43.47
56270;BME280;42176;43.240;27.880;2023-03-12T05:40:27;99337.59;;;10.00;44.62
56270;BME280;42176;43.240;27.880;2023-03-12T05:42:52;99343.53;;;9.50;45.88
56270;BME280;42176;43.240;27.880;2023-03-12T05:45:18;99351.91;;;9.05;47.21
56270;BME280;42176;43.240;27.880;2023-03-12T05:47:44;99351.84;;;8.76;47.96
56270;BME280;42176;43.240;27.880;2023-03-12T05:50:10;99357.97;;;8.07;49.17
56270;BME280;42176;43.240;27.880;2023-03-12T05:52:36;99357.78;;;7.77;50.30
56270;BME280;42176;43.240;27.880;2023-03-12T05:55:01;99370.72;;;7.49;51.24
56270;BME280;42176;43.240;27.880;2023-03-12T05:57:27;99351.06;;;7.22;51.20
56270;BME280;42176;43.240;27.880;2023-03-12T05:59:52;99369.03;;;7.01;52.31
56270;BME280;42176;43.240;27.880;2023-03-12T06:02:18;99386.44;;;7.11;52.69
56270;BME280;42176;43.240;27.880;2023-03-12T06:04:44;99382.84;;;7.15;52.98
56270;BME280;42176;43.240;27.880;2023-03-12T06:07:09;99384.13;;;7.38;52.16
56270;BME280;42176;43.240;27.880;2023-03-12T06:09:35;99391.81;;;7.49;51.65
56270;BME280;42176;43.240;27.880;2023-03-12T06:12:00;99396.88;;;7.60;52.08
56270;BME280;42176;43.240;27.880;2023-03-12T06:14:26;99405.16;;;7.41;51.57
56270;BME280;42176;43.240;27.880;2023-03-12T06:16:51;99410.06;;;7.60;51.39
56270;BME280;42176;43.240;27.880;2023-03-12T06:19:17;99411.22;;;7.86;50.73
56270;BME280;42176;43.240;27.880;2023-03-12T06:21:43;99413.22;;;8.14;50.61
56270;BME280;42176;43.240;27.880;2023-03-12T06:24:08;99416.69;;;8.17;49.53
56270;BME280;42176;43.240;27.880;2023-03-12T06:26:34;99419.28;;;8.19;50.36
56270;BME280;42176;43.240;27.880;2023-03-12T06:28:59;99427.09;;;8.23;50.30
56270;BME280;42176;43.240;27.880;2023-03-12T06:31:25;99435.72;;;8.30;49.88
56270;BME280;42176;43.240;27.880;2023-03-12T06:33:50;99432.78;;;8.43;49.19
56270;BME280;42176;43.240;27.880;2023-03-12T06:36:18;99439.66;;;8.51;49.00
56270;BME280;42176;43.240;27.880;2023-03-12T06:38:44;99439.38;;;8.62;48.81
56270;BME280;42176;43.240;27.880;2023-03-12T06:41:15;99437.44;;;8.71;48.94
56270;BME280;42176;43.240;27.880;2023-03-12T06:43:41;99444.13;;;8.84;48.32
56270;BME280;42176;43.240;27.880;2023-03-12T06:46:08;99437.44;;;8.71;48.89
56270;BME280;42176;43.240;27.880;2023-03-12T06:48:35;99447.81;;;8.78;48.49
56270;BME280;42176;43.240;27.880;2023-03-12T06:51:02;99451.81;;;8.93;48.06
56270;BME280;42176;43.240;27.880;2023-03-12T06:53:28;99456.00;;;9.95;46.35
56270;BME280;42176;43.240;27.880;2023-03-12T06:55:53;99448.72;;;10.03;46.23
56270;BME280;42176;43.240;27.880;2023-03-12T06:58:19;99462.00;;;10.02;45.79
56270;BME280;42176;43.240;27.880;2023-03-12T07:00:44;99465.13;;;10.15;48.42
56270;BME280;42176;43.240;27.880;2023-03-12T07:03:10;99480.34;;;10.38;47.82
56270;BME280;42176;43.240;27.880;2023-03-12T07:05:35;99476.06;;;10.32;45.13
56270;BME280;42176;43.240;27.880;2023-03-12T07:08:01;99470.28;;;10.19;45.97
56270;BME280;42176;43.240;27.880;2023-03-12T07:10:26;99476.44;;;9.92;45.35
56270;BME280;42176;43.240;27.880;2023-03-12T07:12:55;99479.03;;;9.30;46.35
56270;BME280;42176;43.240;27.880;2023-03-12T07:15:22;99490.44;;;9.34;47.31
56270;BME280;42176;43.240;27.880;2023-03-12T07:17:47;99490.31;;;9.37;46.42
56270;BME280;42176;43.240;27.880;2023-03-12T07:20:13;99504.38;;;9.39;46.46
56270;BME280;42176;43.240;27.880;2023-03-12T07:22:38;99516.75;;;9.38;45.81
56270;BME280;42176;43.240;27.880;2023-03-12T07:25:04;99520.88;;;9.49;46.41
56270;BME280;42176;43.240;27.880;2023-03-12T07:27:30;99504.03;;;9.51;46.14
56270;BME280;42176;43.240;27.880;2023-03-12T07:29:55;99524.88;;;9.64;46.37
56270;BME280;42176;43.240;27.880;2023-03-12T07:32:21;99526.81;;;9.88;45.17
56270;BME280;42176;43.240;27.880;2023-03-12T07:34:46;99532.94;;;9.90;45.45
56270;BME280;42176;43.240;27.880;2023-03-12T07:37:12;99541.34;;;10.05;46.13
56270;BME280;42176;43.240;27.880;2023-03-12T07:39:38;99528.38;;;10.26;45.22
56270;BME280;42176;43.240;27.880;2023-03-12T07:42:03;99534.09;;;10.42;44.10
56270;BME280;42176;43.240;27.880;2023-03-12T07:44:29;99529.19;;;10.28;44.63
56270;BME280;42176;43.240;27.880;2023-03-12T07:46:54;99544.16;;;10.29;44.24
56270;BME280;42176;43.240;27.880;2023-03-12T07:49:19;99547.63;;;10.31;44.49
56270;BME280;42176;43.240;27.880;2023-03-12T07:51:45;99541.84;;;10.18;44.14
56270;BME280;42176;43.240;27.880;2023-03-12T07:54:11;99554.44;;;10.10;43.86
56270;BME280;42176;43.240;27.880;2023-03-12T07:56:37;99561.06;;;9.95;44.20
56270;BME280;42176;43.240;27.880;2023-03-12T07:59:02;99560.59;;;9.80;45.04
56270;BME280;42176;43.240;27.880;2023-03-12T08:01:28;99569.16;;;9.88;44.74
56270;BME280;42176;43.240;27.880;2023-03-12T08:03:59;99562.88;;;9.93;44.95
56270;BME280;42176;43.240;27.880;2023-03-12T08:06:25;99572.47;;;9.97;44.85
56270;BME280;42176;43.240;27.880;2023-03-12T08:08:51;99577.97;;;10.20;44.48
56270;BME280;42176;43.240;27.880;2023-03-12T08:11:16;99578.41;;;10.35;43.84
56270;BME280;42176;43.240;27.880;2023-03-12T08:13:42;99575.63;;;10.41;43.38
56270;BME280;42176;43.240;27.880;2023-03-12T08:16:07;99583.66;;;10.38;43.98
56270;BME280;42176;43.240;27.880;2023-03-12T08:18:33;99581.69;;;10.13;44.09
56270;BME280;42176;43.240;27.880;2023-03-12T08:20:59;99596.84;;;10.41;43.54
56270;BME280;42176;43.240;27.880;2023-03-12T08:23:24;99589.28;;;9.96;43.65
56270;BME280;42176;43.240;27.880;2023-03-12T08:25:51;99586.53;;;9.66;44.58
56270;BME280;42176;43.240;27.880;2023-03-12T08:28:18;99602.69;;;9.56;45.82
56270;BME280;42176;43.240;27.880;2023-03-12T08:30:46;99609.63;;;9.60;45.93
56270;BME280;42176;43.240;27.880;2023-03-12T08:33:11;99596.16;;;9.70;45.92
56270;BME280;42176;43.240;27.880;2023-03-12T08:35:37;99609.75;;;9.89;45.47
56270;BME280;42176;43.240;27.880;2023-03-12T08:38:02;99627.47;;;10.18;45.17
56270;BME280;42176;43.240;27.880;2023-03-12T08:40:28;99628.63;;;10.41;44.41
56270;BME280;42176;43.240;27.880;2023-03-12T08:42:53;99620.00;;;10.33;44.05
56270;BME280;42176;43.240;27.880;2023-03-12T08:45:18;99631.22;;;10.11;44.38
56270;BME280;42176;43.240;27.880;2023-03-12T08:47:44;99641.53;;;10.20;44.78
56270;BME280;42176;43.240;27.880;2023-03-12T08:50:11;99639.53;;;10.29;44.94
56270;BME280;42176;43.240;27.880;2023-03-12T08:52:37;99643.09;;;10.28;44.59
56270;BME280;42176;43.240;27.880;2023-03-12T08:55:03;99660.91;;;10.23;45.00
56270;BME280;42176;43.240;27.880;2023-03-12T08:57:30;99649.81;;;10.41;44.80
56270;BME280;42176;43.240;27.880;2023-03-12T08:59:56;99647.25;;;10.38;44.68
56270;BME280;42176;43.240;27.880;2023-03-12T09:02:21;99642.72;;;10.10;44.36
56270;BME280;42176;43.240;27.880;2023-03-12T09:04:48;99659.09;;;10.25;44.43
56270;BME280;42176;43.240;27.880;2023-03-12T09:07:13;99657.06;;;10.33;44.24
56270;BME280;42176;43.240;27.880;2023-03-12T09:09:39;99662.63;;;10.57;44.01
56270;BME280;42176;43.240;27.880;2023-03-12T09:12:05;99664.81;;;10.72;43.38
56270;BME280;42176;43.240;27.880;2023-03-12T09:14:30;99669.75;;;10.85;43.23
56270;BME280;42176;43.240;27.880;2023-03-12T09:16:56;99668.41;;;10.70;42.89
56270;BME280;42176;43.240;27.880;2023-03-12T09:19:22;99666.19;;;10.86;43.33
56270;BME280;42176;43.240;27.880;2023-03-12T09:21:47;99679.09;;;11.25;42.98
56270;BME280;42176;43.240;27.880;2023-03-12T09:24:13;99691.66;;;11.20;42.07
56270;BME280;42176;43.240;27.880;2023-03-12T09:26:38;99693.31;;;11.51;41.99
56270;BME280;42176;43.240;27.880;2023-03-12T09:29:04;99689.72;;;11.79;41.76
56270;BME280;42176;43.240;27.880;2023-03-12T09:31:29;99699.47;;;11.78;40.02
56270;BME280;42176;43.240;27.880;2023-03-12T09:33:55;99683.22;;;11.61;40.25
56270;BME280;42176;43.240;27.880;2023-03-12T09:36:20;99681.28;;;11.66;40.61
56270;BME280;42176;43.240;27.880;2023-03-12T09:38:46;99697.78;;;11.49;40.40
56270;BME280;42176;43.240;27.880;2023-03-12T09:41:42;99705.38;;;11.33;41.44
56270;BME280;42176;43.240;27.880;2023-03-12T09:46:47;99702.03;;;11.26;41.67
56270;BME280;42176;43.240;27.880;2023-03-12T09:52:15;99704.59;;;11.29;41.55
56270;BME280;42176;43.240;27.880;2023-03-12T09:55:13;99702.47;;;11.40;41.85
56270;BME280;42176;43.240;27.880;2023-03-12T09:57:39;99702.69;;;11.61;41.65
56270;BME280;42176;43.240;27.880;2023-03-12T10:00:10;99714.31;;;11.57;41.15
56270;BME280;42176;43.240;27.880;2023-03-12T10:16:39;99723.38;;;11.23;41.10
56270;BME280;42176;43.240;27.880;2023-03-12T10:19:24;99731.97;;;11.31;41.16
56270;BME280;42176;43.240;27.880;2023-03-12T10:27:34;99730.78;;;11.11;42.04
56270;BME280;42176;43.240;27.880;2023-03-12T10:30:04;99733.81;;;11.29;41.72
56270;BME280;42176;43.240;27.880;2023-03-12T10:32:46;99728.31;;;11.35;41.80
56270;BME280;42176;43.240;27.880;2023-03-12T10:35:14;99736.97;;;11.69;41.60
56270;BME280;42176;43.240;27.880;2023-03-12T10:37:46;99718.44;;;11.67;41.17
56270;BME280;42176;43.240;27.880;2023-03-12T10:40:16;99739.78;;;11.64;40.92
56270;BME280;42176;43.240;27.880;2023-03-12T10:42:42;99723.13;;;11.31;41.30
56270;BME280;42176;43.240;27.880;2023-03-12T10:47:38;99734.13;;;11.47;41.25
56270;BME280;42176;43.240;27.880;2023-03-12T10:52:38;99726.69;;;11.58;41.53
56270;BME280;42176;43.240;27.880;2023-03-12T10:55:18;99728.34;;;11.61;41.36
56270;BME280;42176;43.240;27.880;2023-03-12T10:57:43;99738.72;;;11.68;40.90
56270;BME280;42176;43.240;27.880;2023-03-12T11:00:15;99730.00;;;11.65;40.67
56270;BME280;42176;43.240;27.880;2023-03-12T11:02:45;99722.78;;;11.41;41.15
56270;BME280;42176;43.240;27.880;2023-03-12T11:07:48;99734.97;;;11.49;41.13
56270;BME280;42176;43.240;27.880;2023-03-12T11:10:17;99738.94;;;11.62;40.73
56270;BME280;42176;43.240;27.880;2023-03-12T11:13:05;99739.72;;;11.66;40.79
56270;BME280;42176;43.240;27.880;2023-03-12T11:15:41;99723.88;;;11.63;40.56
56270;BME280;42176;43.240;27.880;2023-03-12T11:20:41;99739.94;;;11.31;40.92
56270;BME280;42176;43.240;27.880;2023-03-12T11:23:23;99739.13;;;11.56;40.88
56270;BME280;42176;43.240;27.880;2023-03-12T11:25:58;99735.22;;;11.39;41.72
56270;BME280;42176;43.240;27.880;2023-03-12T11:28:35;99743.63;;;11.54;41.67
56270;BME280;42176;43.240;27.880;2023-03-12T11:31:02;99746.41;;;11.51;41.59
56270;BME280;42176;43.240;27.880;2023-03-12T11:33:29;99740.88;;;11.57;41.34
56270;BME280;42176;43.240;27.880;2023-03-12T11:38:38;99744.34;;;11.86;39.92
56270;BME280;42176;43.240;27.880;2023-03-12T12:00:13;99762.59;;;11.97;40.24
56270;BME280;42176;43.240;27.880;2023-03-12T12:08:13;99754.63;;;11.98;40.37
56270;BME280;42176;43.240;27.880;2023-03-12T12:11:07;99755.03;;;11.84;40.74
56270;BME280;42176;43.240;27.880;2023-03-12T12:29:54;99776.25;;;12.13;40.33
56270;BME280;42176;43.240;27.880;2023-03-12T12:32:38;99778.13;;;12.09;40.51
56270;BME280;42176;43.240;27.880;2023-03-12T12:35:23;99786.97;;;11.83;41.40
56270;BME280;42176;43.240;27.880;2023-03-12T12:38:17;99790.91;;;11.69;41.59
56270;BME280;42176;43.240;27.880;2023-03-12T12:40:51;99790.00;;;11.70;41.87
56270;BME280;42176;43.240;27.880;2023-03-12T12:45:50;99802.91;;;11.54;42.88
56270;BME280;42176;43.240;27.880;2023-03-12T12:48:20;99810.28;;;11.45;42.74
56270;BME280;42176;43.240;27.880;2023-03-12T12:50:48;99816.13;;;11.27;42.97
56270;BME280;42176;43.240;27.880;2023-03-12T12:53:25;99817.13;;;11.22;43.30
56270;BME280;42176;43.240;27.880;2023-03-12T12:59:02;99823.94;;;11.01;43.63
56270;BME280;42176;43.240;27.880;2023-03-12T13:01:33;99830.50;;;10.89;44.02
56270;BME280;42176;43.240;27.880;2023-03-12T13:04:10;99830.66;;;10.82;44.52
56270;BME280;42176;43.240;27.880;2023-03-12T13:09:34;99836.53;;;10.61;45.01
56270;BME280;42176;43.240;27.880;2023-03-12T13:12:17;99834.91;;;10.57;45.15
56270;BME280;42176;43.240;27.880;2023-03-12T13:14:45;99839.31;;;10.56;44.79
56270;BME280;42176;43.240;27.880;2023-03-12T13:20:36;99855.91;;;10.63;48.01
56270;BME280;42176;43.240;27.880;2023-03-12T13:29:34;99869.09;;;8.13;63.86
56270;BME280;42176;43.240;27.880;2023-03-12T13:32:03;99869.97;;;7.56;66.46
56270;BME280;42176;43.240;27.880;2023-03-12T13:34:42;99871.47;;;7.07;69.02
56270;BME280;42176;43.240;27.880;2023-03-12T13:37:27;99865.31;;;7.06;69.82
56270;BME280;42176;43.240;27.880;2023-03-12T13:39:58;99867.97;;;7.03;70.21
56270;BME280;42176;43.240;27.880;2023-03-12T13:42:34;99875.88;;;7.03;70.50
56270;BME280;42176;43.240;27.880;2023-03-12T13:45:21;99879.56;;;6.86;71.30
56270;BME280;42176;43.240;27.880;2023-03-12T13:47:47;99869.81;;;6.98;70.85
56270;BME280;42176;43.240;27.880;2023-03-12T13:50:14;99868.88;;;7.02;70.60
56270;BME280;42176;43.240;27.880;2023-03-12T13:52:49;99886.44;;;7.03;70.40
56270;BME280;42176;43.240;27.880;2023-03-12T13:55:33;99883.53;;;7.25;69.88
56270;BME280;42176;43.240;27.880;2023-03-12T13:58:07;99889.66;;;7.30;69.05
56270;BME280;42176;43.240;27.880;2023-03-12T14:00:39;99893.97;;;7.34;68.98
56270;BME280;42176;43.240;27.880;2023-03-12T14:11:01;99906.81;;;6.85;71.17
56270;BME280;42176;43.240;27.880;2023-03-12T14:13:38;99906.59;;;7.07;70.61
56270;BME280;42176;43.240;27.880;2023-03-12T14:18:37;99913.78;;;6.93;71.10
56270;BME280;42176;43.240;27.880;2023-03-12T14:21:09;99918.06;;;7.03;70.50
56270;BME280;42176;43.240;27.880;2023-03-12T14:23:43;99919.66;;;7.18;70.32
56270;BME280;42176;43.240;27.880;2023-03-12T14:26:19;99926.91;;;6.97;70.33
56270;BME280;42176;43.240;27.880;2023-03-12T14:28:48;99926.19;;;6.81;70.38
56270;BME280;42176;43.240;27.880;2023-03-12T14:31:20;99928.84;;;6.80;70.75
56270;BME280;42176;43.240;27.880;2023-03-12T14:33:55;99935.00;;;6.77;71.32
56270;BME280;42176;43.240;27.880;2023-03-12T14:36:26;99937.75;;;6.66;71.63
56270;BME280;42176;43.240;27.880;2023-03-12T14:38:59;99937.41;;;7.00;73.19
56270;BME280;42176;43.240;27.880;2023-03-12T14:41:26;99936.53;;;7.01;72.12
56270;BME280;42176;43.240;27.880;2023-03-12T14:44:09;99943.53;;;7.01;70.04
56270;BME280;42176;43.240;27.880;2023-03-12T14:46:46;99939.22;;;6.97;68.47
56270;BME280;42176;43.240;27.880;2023-03-12T14:49:19;99934.00;;;6.91;69.08
56270;BME280;42176;43.240;27.880;2023-03-12T14:51:45;99947.28;;;6.80;68.99
56270;BME280;42176;43.240;27.880;2023-03-12T14:54:18;99943.66;;;6.92;69.24
56270;BME280;42176;43.240;27.880;2023-03-12T14:56:45;99938.47;;;6.81;67.63
56270;BME280;42176;43.240;27.880;2023-03-12T14:59:29;99950.03;;;6.69;68.59
56270;BME280;42176;43.240;27.880;2023-03-12T15:02:03;99952.72;;;6.60;68.99